Time;durP1;ratioP1;P1;durP2;ratioP2;P2;SDS_P1;SDS_P2;PMS_P1;PMS_P2;Temp;Humidity;BMP_temperature;BMP_pressure;BME280_temperature;BME280_humidity;BME280_pressure;Samples;Min_cycle;Max_cycle;Signal;HPM_P1;HPM_P2
2023/08/06 00:01:25;;;;;;;16.93;13.87;;;15.40;99.90;;;;;;5012992;28;20425;-71
2023/08/06 00:03:52;;;;;;;17.37;13.70;;;15.40;99.90;;;;;;5005033;28;20507;-72
2023/08/06 00:06:18;;;;;;;23.17;13.30;;;15.30;99.90;;;;;;5006023;28;20429;-71
2023/08/06 00:08:45;;;;;;;24.03;14.47;;;15.30;99.90;;;;;;5002628;28;20461;-71
2023/08/06 00:11:13;;;;;;;18.00;13.97;;;15.30;99.90;;;;;;5006422;28;20442;-71
2023/08/06 00:13:40;;;;;;;17.47;13.97;;;15.30;99.90;;;;;;5009337;28;20509;-71
2023/08/06 00:16:11;;;;;;;16.73;13.40;;;15.30;99.90;;;;;;5000043;28;20850;-71
2023/08/06 00:18:37;;;;;;;18.70;14.17;;;15.20;99.90;;;;;;5006762;28;20512;-70
2023/08/06 00:21:04;;;;;;;18.87;13.83;;;15.20;99.90;;;;;;5004695;28;20426;-71
2023/08/06 00:23:31;;;;;;;17.37;13.80;;;15.20;99.90;;;;;;5012339;28;20848;-71
2023/08/06 00:25:57;;;;;;;23.53;13.30;;;15.20;99.90;;;;;;4992862;28;20484;-70
2023/08/06 00:28:25;;;;;;;15.80;13.20;;;15.20;99.90;;;;;;5012406;28;20491;-71
2023/08/06 00:30:54;;;;;;;15.20;13.20;;;15.20;99.90;;;;;;5012727;28;20485;-72
2023/08/06 00:33:20;;;;;;;16.30;12.43;;;15.20;99.90;;;;;;5012723;28;20453;-71
2023/08/06 00:35:47;;;;;;;18.70;12.33;;;15.20;99.90;;;;;;5012709;28;20454;-70
2023/08/06 00:38:14;;;;;;;17.03;12.57;;;15.20;99.90;;;;;;5008366;28;21066;-71
2023/08/06 00:40:40;;;;;;;14.83;12.13;;;15.20;99.90;;;;;;5001950;28;20483;-71
2023/08/06 00:43:07;;;;;;;16.50;12.93;;;15.20;99.90;;;;;;5007692;28;20430;-71
2023/08/06 00:45:37;;;;;;;23.40;13.50;;;15.20;99.90;;;;;;5002383;28;20910;-71
2023/08/06 00:48:06;;;;;;;18.07;13.47;;;15.20;99.90;;;;;;5005091;28;20565;-71
2023/08/06 00:50:33;;;;;;;18.40;14.53;;;15.20;99.90;;;;;;5012399;28;20484;-72
2023/08/06 00:53:00;;;;;;;14.50;12.23;;;15.10;99.90;;;;;;5003870;28;20770;-71
2023/08/06 00:55:27;;;;;;;14.33;12.47;;;15.10;99.90;;;;;;5006696;28;20541;-72
2023/08/06 00:57:56;;;;;;;16.40;12.50;;;15.00;99.90;;;;;;5012029;28;20442;-72
2023/08/06 01:00:23;;;;;;;16.00;12.90;;;15.00;99.90;;;;;;5012029;28;20571;-72
2023/08/06 01:02:51;;;;;;;14.50;12.60;;;15.00;99.90;;;;;;5011892;28;20796;-72
2023/08/06 01:05:18;;;;;;;19.50;13.40;;;15.00;99.90;;;;;;5006917;28;20431;-72
2023/08/06 01:08:04;;;;;;;14.43;12.30;;;15.00;99.90;;;;;;4992129;28;20470;-71
2023/08/06 01:10:47;;;;;;;20.93;12.20;;;15.00;99.90;;;;;;4989268;28;20429;-72
2023/08/06 01:13:24;;;;;;;13.37;11.93;;;15.00;99.90;;;;;;5011201;28;20446;-72
2023/08/06 01:15:55;;;;;;;19.17;12.73;;;15.00;99.90;;;;;;5004401;28;21146;-72
2023/08/06 01:18:23;;;;;;;19.60;13.10;;;15.00;99.90;;;;;;4990626;28;20541;-72
2023/08/06 01:20:51;;;;;;;18.77;12.60;;;15.10;99.90;;;;;;5007954;28;20469;-71
2023/08/06 01:23:19;;;;;;;15.40;11.20;;;15.10;99.90;;;;;;5003230;28;20834;-72
2023/08/06 01:25:54;;;;;;;14.33;11.20;;;15.10;99.90;;;;;;5008544;28;20509;-72
2023/08/06 01:28:28;;;;;;;13.27;10.40;;;15.00;99.90;;;;;;4991848;28;20490;-72
2023/08/06 01:30:58;;;;;;;14.33;9.73;;;15.00;99.90;;;;;;4999172;28;21071;-71
2023/08/06 01:33:25;;;;;;;15.00;11.33;;;15.00;99.90;;;;;;5001031;28;20438;-72
2023/08/06 01:35:56;;;;;;;10.73;9.33;;;15.00;99.90;;;;;;5005277;28;20472;-71
2023/08/06 01:38:23;;;;;;;11.53;9.73;;;15.00;99.90;;;;;;4995484;28;20499;-71
2023/08/06 01:40:49;;;;;;;20.30;9.63;;;15.00;99.90;;;;;;5004661;28;20457;-72
2023/08/06 01:43:16;;;;;;;12.73;9.50;;;15.00;99.90;;;;;;5009228;28;20458;-72
2023/08/06 01:45:43;;;;;;;12.23;9.87;;;15.00;99.90;;;;;;4996329;28;21046;-72
2023/08/06 01:48:09;;;;;;;12.00;9.90;;;14.90;99.90;;;;;;5002799;28;20487;-71
2023/08/06 01:50:36;;;;;;;10.97;9.50;;;14.90;99.90;;;;;;5011471;28;20458;-72
2023/08/06 01:53:04;;;;;;;16.83;10.10;;;14.90;99.90;;;;;;5010113;28;20425;-71
2023/08/06 01:55:31;;;;;;;12.00;9.90;;;14.90;99.90;;;;;;4996810;28;20872;-72
2023/08/06 01:57:57;;;;;;;13.60;9.47;;;14.80;99.90;;;;;;4998857;28;20933;-72
2023/08/06 02:00:24;;;;;;;10.10;9.10;;;14.90;99.90;;;;;;5010539;28;20450;-72
2023/08/06 02:02:51;;;;;;;16.07;10.40;;;14.90;99.90;;;;;;4998598;28;20501;-72
2023/08/06 02:05:17;;;;;;;11.00;9.10;;;14.90;99.90;;;;;;5011128;28;20455;-71
2023/08/06 02:07:44;;;;;;;12.40;9.03;;;14.80;99.90;;;;;;5006890;28;21036;-72
2023/08/06 02:10:12;;;;;;;14.20;9.73;;;14.80;99.90;;;;;;4995833;28;20524;-72
2023/08/06 02:12:38;;;;;;;12.53;9.30;;;14.80;99.90;;;;;;5011349;28;20483;-72
2023/08/06 02:15:06;;;;;;;17.93;9.90;;;14.90;99.90;;;;;;5008937;28;20509;-72
2023/08/06 02:17:33;;;;;;;12.20;9.40;;;14.90;99.90;;;;;;5004287;28;20429;-72
2023/08/06 02:20:00;;;;;;;15.70;9.67;;;14.90;99.90;;;;;;5009977;28;20445;-72
2023/08/06 02:22:27;;;;;;;9.97;8.97;;;14.90;99.90;;;;;;4993119;28;20480;-72
2023/08/06 02:24:54;;;;;;;12.07;9.87;;;14.90;99.90;;;;;;4997174;28;20533;-71
2023/08/06 02:27:22;;;;;;;16.47;10.07;;;14.90;99.90;;;;;;5002540;28;20843;-72
2023/08/06 02:29:48;;;;;;;14.30;9.53;;;14.90;99.90;;;;;;4999540;28;20492;-72
2023/08/06 02:32:15;;;;;;;16.97;10.20;;;14.80;99.90;;;;;;5010952;28;20425;-71
2023/08/06 02:34:41;;;;;;;12.63;8.70;;;14.90;99.90;;;;;;5005973;28;20442;-72
2023/08/06 02:37:08;;;;;;;12.23;9.20;;;14.90;99.90;;;;;;4998315;28;20437;-72
2023/08/06 02:39:36;;;;;;;13.20;9.63;;;14.90;99.90;;;;;;5010859;28;20437;-72
2023/08/06 02:42:03;;;;;;;9.63;8.67;;;14.80;99.90;;;;;;5011024;28;20432;-71
2023/08/06 02:44:31;;;;;;;10.17;8.73;;;14.90;99.90;;;;;;5006242;28;20483;-72
2023/08/06 02:46:57;;;;;;;13.53;8.53;;;14.90;99.90;;;;;;4998670;28;20438;-71
2023/08/06 02:49:24;;;;;;;12.03;8.33;;;14.90;99.90;;;;;;5002806;28;20476;-72
2023/08/06 02:51:51;;;;;;;11.13;9.00;;;14.90;99.90;;;;;;5011047;28;20424;-72
2023/08/06 02:54:18;;;;;;;11.33;8.27;;;14.90;99.90;;;;;;5011010;28;20436;-72
2023/08/06 02:56:45;;;;;;;10.63;8.10;;;15.00;99.90;;;;;;5004514;28;20429;-71
2023/08/06 02:59:12;;;;;;;16.50;8.50;;;15.00;99.90;;;;;;5008343;28;20469;-71
2023/08/06 03:01:40;;;;;;;13.83;8.63;;;15.00;99.90;;;;;;5010730;28;20417;-72
2023/08/06 03:04:07;;;;;;;9.07;8.00;;;15.00;99.90;;;;;;5003537;28;20449;-70
2023/08/06 03:06:33;;;;;;;11.33;8.03;;;15.00;99.90;;;;;;5014617;28;20429;-70
2023/08/06 03:09:00;;;;;;;16.77;8.30;;;15.00;99.90;;;;;;5013925;28;20523;-70
2023/08/06 03:11:27;;;;;;;14.50;9.67;;;15.00;99.90;;;;;;4998044;28;20433;-70
2023/08/06 03:13:53;;;;;;;13.90;9.10;;;15.00;99.90;;;;;;5014001;28;20429;-70
2023/08/06 03:16:20;;;;;;;14.43;8.80;;;15.00;99.90;;;;;;5009073;28;20498;-71
2023/08/06 03:18:48;;;;;;;11.43;7.87;;;15.00;99.90;;;;;;5009191;28;20474;-70
2023/08/06 03:21:15;;;;;;;12.57;8.50;;;14.90;99.90;;;;;;5012677;28;20524;-70
2023/08/06 03:23:42;;;;;;;11.67;7.80;;;14.90;99.90;;;;;;5007405;28;20855;-70
2023/08/06 03:26:08;;;;;;;15.10;8.43;;;14.90;99.90;;;;;;5002907;28;20465;-70
2023/08/06 03:28:35;;;;;;;9.80;7.73;;;14.90;99.90;;;;;;5013333;28;20539;-70
2023/08/06 03:31:02;;;;;;;10.23;8.10;;;14.90;99.90;;;;;;4999702;28;20437;-70
2023/08/06 03:33:29;;;;;;;8.90;7.90;;;14.80;99.90;;;;;;5009007;28;20507;-71
2023/08/06 03:35:57;;;;;;;10.60;7.40;;;14.80;99.90;;;;;;5013817;28;20446;-70
2023/08/06 03:38:24;;;;;;;9.50;7.87;;;14.80;99.90;;;;;;5013364;28;20466;-70
2023/08/06 03:40:51;;;;;;;12.13;7.93;;;14.80;99.90;;;;;;5013681;28;20437;-70
2023/08/06 03:43:17;;;;;;;15.17;7.80;;;14.70;99.90;;;;;;5006830;28;20594;-70
2023/08/06 03:45:44;;;;;;;11.17;8.53;;;14.70;99.90;;;;;;5013900;28;20450;-70
2023/08/06 03:48:11;;;;;;;11.00;8.80;;;14.70;99.90;;;;;;5006147;28;20460;-70
2023/08/06 03:50:38;;;;;;;12.50;7.87;;;14.70;99.90;;;;;;5013545;28;20487;-70
2023/08/06 03:53:05;;;;;;;9.80;8.80;;;14.70;99.90;;;;;;5008859;28;20917;-70
2023/08/06 03:55:32;;;;;;;13.60;8.70;;;14.70;99.90;;;;;;5010130;28;20451;-70
2023/08/06 03:57:59;;;;;;;12.07;9.07;;;14.70;99.90;;;;;;5003044;28;20423;-71
2023/08/06 04:00:25;;;;;;;16.57;9.20;;;14.70;99.90;;;;;;5011896;28;20435;-71
2023/08/06 04:02:52;;;;;;;12.80;8.70;;;14.80;99.90;;;;;;5013220;28;20863;-70
2023/08/06 04:05:19;;;;;;;10.33;9.23;;;14.80;99.90;;;;;;5013127;28;20451;-70
2023/08/06 04:07:46;;;;;;;11.07;8.90;;;14.70;99.90;;;;;;5006877;28;20501;-70
2023/08/06 04:10:14;;;;;;;10.23;8.57;;;14.70;99.90;;;;;;5004168;28;20469;-70
2023/08/06 04:12:40;;;;;;;16.67;9.77;;;14.70;99.90;;;;;;5002558;28;20421;-70
2023/08/06 04:15:08;;;;;;;11.63;9.70;;;14.70;99.90;;;;;;5012935;28;20450;-70
2023/08/06 04:17:35;;;;;;;13.60;9.57;;;14.70;99.90;;;;;;5004595;28;20920;-71
2023/08/06 04:20:02;;;;;;;11.70;9.90;;;14.60;99.90;;;;;;5012395;28;20432;-71
2023/08/06 04:22:28;;;;;;;12.73;9.43;;;14.60;99.90;;;;;;5004602;28;20901;-71
2023/08/06 04:24:55;;;;;;;12.60;10.00;;;14.60;99.90;;;;;;5011141;28;21002;-70
2023/08/06 04:27:23;;;;;;;14.07;9.60;;;14.60;99.90;;;;;;5003408;28;20425;-71
2023/08/06 04:29:50;;;;;;;11.73;10.30;;;14.70;99.90;;;;;;5012352;28;20514;-71
2023/08/06 04:32:17;;;;;;;14.20;9.60;;;14.70;99.90;;;;;;5005384;28;21199;-70
2023/08/06 04:34:44;;;;;;;14.17;10.40;;;14.70;99.90;;;;;;5004584;28;20428;-70
2023/08/06 04:37:10;;;;;;;14.87;10.40;;;14.80;99.90;;;;;;5013000;28;20428;-70
2023/08/06 04:39:37;;;;;;;13.60;10.13;;;14.80;99.90;;;;;;5012611;28;20444;-70
2023/08/06 04:42:04;;;;;;;12.80;9.60;;;14.80;99.90;;;;;;4998323;28;20883;-71
2023/08/06 04:44:32;;;;;;;11.50;9.33;;;14.80;99.90;;;;;;5011885;28;20498;-71
2023/08/06 04:46:59;;;;;;;11.20;9.20;;;14.90;99.90;;;;;;5012510;28;20475;-71
2023/08/06 04:49:26;;;;;;;9.47;8.23;;;14.80;99.90;;;;;;5009312;28;20519;-71
2023/08/06 04:51:52;;;;;;;10.00;8.93;;;14.90;99.90;;;;;;5007079;28;20421;-71
2023/08/06 04:54:19;;;;;;;10.43;8.30;;;14.90;99.90;;;;;;5012472;28;20424;-70
2023/08/06 04:56:46;;;;;;;13.30;8.97;;;14.90;99.90;;;;;;5002430;28;20861;-71
2023/08/06 04:59:12;;;;;;;15.43;10.03;;;14.80;99.90;;;;;;5007633;28;20471;-71
2023/08/06 05:01:40;;;;;;;12.63;9.83;;;14.80;99.90;;;;;;5005338;28;20483;-70
2023/08/06 05:04:07;;;;;;;16.53;9.80;;;14.80;99.90;;;;;;5012208;28;20479;-71
2023/08/06 05:06:33;;;;;;;14.20;9.23;;;14.80;99.90;;;;;;5002078;28;20450;-71
2023/08/06 05:09:00;;;;;;;10.60;8.70;;;14.90;99.90;;;;;;5011799;28;20511;-71
2023/08/06 05:11:27;;;;;;;11.43;9.20;;;14.90;99.90;;;;;;5002564;28;20450;-71
2023/08/06 05:13:53;;;;;;;15.13;8.60;;;14.90;99.90;;;;;;5011830;28;20438;-70
2023/08/06 05:16:20;;;;;;;8.80;7.90;;;14.90;99.90;;;;;;4995935;28;20513;-71
2023/08/06 05:18:48;;;;;;;9.43;7.70;;;14.90;99.90;;;;;;5011568;28;20437;-71
2023/08/06 05:21:16;;;;;;;7.90;6.70;;;14.90;99.90;;;;;;5011440;28;20458;-70
2023/08/06 05:23:42;;;;;;;7.80;6.57;;;15.00;99.90;;;;;;5004099;28;20462;-71
2023/08/06 05:26:09;;;;;;;9.03;6.10;;;15.00;99.90;;;;;;5006530;28;20465;-71
2023/08/06 05:28:36;;;;;;;9.10;6.83;;;15.10;99.90;;;;;;5010894;28;20445;-70
2023/08/06 05:31:04;;;;;;;6.63;5.60;;;15.10;99.90;;;;;;5007477;28;20429;-71
2023/08/06 05:33:31;;;;;;;8.50;6.40;;;15.20;99.90;;;;;;5011729;28;20592;-68
2023/08/06 05:35:59;;;;;;;6.33;5.73;;;15.40;99.90;;;;;;5011564;28;20493;-68
2023/08/06 05:38:26;;;;;;;6.70;5.90;;;15.50;99.90;;;;;;5011125;28;20517;-68
2023/08/06 05:40:52;;;;;;;5.80;5.20;;;15.70;99.90;;;;;;5005558;28;20519;-68
2023/08/06 05:43:19;;;;;;;11.33;5.37;;;15.80;99.90;;;;;;4999384;28;20510;-69
2023/08/06 05:45:46;;;;;;;14.10;5.83;;;15.90;99.90;;;;;;5003387;28;20456;-69
2023/08/06 05:48:13;;;;;;;7.97;5.10;;;15.90;99.90;;;;;;4988873;28;20446;-68
2023/08/06 05:50:39;;;;;;;6.37;4.87;;;16.00;99.90;;;;;;5011342;28;20492;-68
2023/08/06 05:53:07;;;;;;;13.40;5.90;;;16.00;99.90;;;;;;5011431;28;20463;-68
2023/08/06 05:55:34;;;;;;;8.00;4.77;;;16.00;99.90;;;;;;4991392;28;20980;-68
2023/08/06 05:58:01;;;;;;;7.47;5.00;;;16.00;99.90;;;;;;5004847;28;20430;-69
2023/08/06 06:00:27;;;;;;;7.87;4.20;;;16.00;99.90;;;;;;5009204;28;20453;-68
2023/08/06 06:02:54;;;;;;;6.73;4.20;;;15.90;99.90;;;;;;5006821;28;20451;-69
2023/08/06 06:05:21;;;;;;;6.30;3.93;;;15.80;99.90;;;;;;4984094;28;20435;-68
2023/08/06 06:07:47;;;;;;;5.17;3.80;;;15.70;99.90;;;;;;4998822;28;20433;-68
2023/08/06 06:10:15;;;;;;;5.53;4.30;;;15.70;99.90;;;;;;5001439;28;21084;-69
2023/08/06 06:12:42;;;;;;;4.60;3.63;;;15.70;99.90;;;;;;5003284;28;20416;-68
2023/08/06 06:15:10;;;;;;;4.10;3.70;;;15.70;99.90;;;;;;5011343;28;20468;-69
2023/08/06 06:17:36;;;;;;;6.10;4.30;;;15.70;99.90;;;;;;5008481;28;20450;-69
2023/08/06 06:20:04;;;;;;;6.10;3.40;;;15.80;99.90;;;;;;5010711;28;21050;-69
2023/08/06 06:22:30;;;;;;;6.63;3.77;;;15.80;99.90;;;;;;4997214;28;20485;-69
2023/08/06 06:24:57;;;;;;;6.07;4.10;;;15.90;99.90;;;;;;5007987;28;20513;-69
2023/08/06 06:27:25;;;;;;;4.63;3.47;;;16.00;99.90;;;;;;4991461;28;20459;-69
2023/08/06 06:29:52;;;;;;;5.27;3.27;;;16.10;99.90;;;;;;5010632;28;20493;-69
2023/08/06 06:32:19;;;;;;;2.80;2.60;;;16.40;99.90;;;;;;4998478;28;20528;-69
2023/08/06 06:34:45;;;;;;;1.57;1.47;;;16.60;99.90;;;;;;4998774;28;20505;-69
2023/08/06 06:37:12;;;;;;;2.10;2.00;;;16.70;99.90;;;;;;4997237;28;20440;-68
2023/08/06 06:39:38;;;;;;;2.50;2.17;;;16.70;99.90;;;;;;5012106;28;20449;-68
2023/08/06 06:42:06;;;;;;;1.57;1.47;;;16.80;99.90;;;;;;5014770;28;20520;-69
2023/08/06 06:44:34;;;;;;;1.67;1.50;;;16.70;99.90;;;;;;5014795;28;20473;-68
2023/08/06 06:47:00;;;;;;;1.40;1.30;;;16.70;99.90;;;;;;5014610;28;20450;-70
2023/08/06 06:49:27;;;;;;;2.07;1.67;;;16.60;99.90;;;;;;5012764;28;20490;-68
2023/08/06 06:51:53;;;;;;;1.73;1.40;;;16.60;99.90;;;;;;5006688;28;20450;-70
2023/08/06 06:54:20;;;;;;;1.50;1.40;;;16.40;99.90;;;;;;5010179;28;20738;-69
2023/08/06 06:56:47;;;;;;;2.07;1.40;;;16.40;99.90;;;;;;5014468;28;20496;-69
2023/08/06 06:59:13;;;;;;;1.50;1.40;;;16.40;99.90;;;;;;5014040;28;20440;-69
2023/08/06 07:01:41;;;;;;;1.50;1.40;;;16.30;99.90;;;;;;5001828;28;20436;-69
2023/08/06 07:04:08;;;;;;;1.33;1.23;;;16.20;99.90;;;;;;5014588;28;20454;-68
2023/08/06 07:06:34;;;;;;;1.67;1.40;;;16.10;99.90;;;;;;5013992;28;20450;-68
2023/08/06 07:09:01;;;;;;;6.60;1.50;;;16.00;99.90;;;;;;4993751;28;20507;-69
2023/08/06 07:11:28;;;;;;;1.53;1.43;;;15.90;99.90;;;;;;5002519;28;21039;-69
2023/08/06 07:13:58;;;;;;;1.30;1.20;;;15.80;99.90;;;;;;4999878;28;20451;-69
2023/08/06 07:16:25;;;;;;;1.47;1.37;;;15.70;99.90;;;;;;5006809;28;20541;-69
2023/08/06 07:18:55;;;;;;;1.30;0.93;;;15.80;99.90;;;;;;5012955;28;20440;-69
2023/08/06 07:21:21;;;;;;;1.40;1.30;;;15.80;99.90;;;;;;5004886;28;20976;-68
2023/08/06 07:23:49;;;;;;;3.77;1.20;;;15.80;99.90;;;;;;4997533;28;20433;-68
2023/08/06 07:26:15;;;;;;;1.40;1.20;;;15.80;99.90;;;;;;5002237;28;20833;-68
2023/08/06 07:28:42;;;;;;;1.60;1.50;;;15.80;99.90;;;;;;5008760;28;20985;-68
2023/08/06 07:31:09;;;;;;;1.60;1.40;;;15.80;99.90;;;;;;5009780;28;20469;-68
2023/08/06 07:33:35;;;;;;;2.43;1.70;;;15.80;99.90;;;;;;5012987;28;20454;-67
2023/08/06 07:36:10;;;;;;;1.80;1.70;;;15.70;99.90;;;;;;5013268;28;20451;-66
2023/08/06 07:38:37;;;;;;;2.53;1.40;;;15.70;99.90;;;;;;5012790;28;20527;-66
2023/08/06 07:41:03;;;;;;;1.60;1.50;;;15.70;99.90;;;;;;5013277;28;20596;-67
2023/08/06 07:43:30;;;;;;;2.33;1.43;;;15.70;99.90;;;;;;5013125;28;20429;-66
2023/08/06 07:45:58;;;;;;;1.90;1.80;;;15.70;99.90;;;;;;4996458;28;20482;-67
2023/08/06 07:48:25;;;;;;;1.47;1.37;;;15.70;99.90;;;;;;5012531;28;20495;-67
2023/08/06 07:50:53;;;;;;;1.70;1.60;;;15.70;99.90;;;;;;5007438;28;20487;-67
2023/08/06 07:53:21;;;;;;;2.57;1.53;;;15.80;99.90;;;;;;4995988;28;20520;-69
2023/08/06 07:55:50;;;;;;;1.30;1.20;;;15.80;99.90;;;;;;4999518;28;20505;-68
2023/08/06 07:58:17;;;;;;;1.17;1.07;;;15.70;99.90;;;;;;5007518;28;20485;-68
2023/08/06 08:00:45;;;;;;;1.70;1.60;;;15.70;99.90;;;;;;5004390;28;20965;-68
2023/08/06 08:03:12;;;;;;;1.20;1.10;;;15.60;99.90;;;;;;5013386;28;20517;-68
2023/08/06 08:05:39;;;;;;;1.27;1.17;;;15.60;99.90;;;;;;5002930;28;20458;-68
2023/08/06 08:08:05;;;;;;;1.50;1.40;;;15.60;99.90;;;;;;4993274;28;20426;-68
2023/08/06 08:10:34;;;;;;;1.20;1.10;;;15.60;99.90;;;;;;4990692;28;20538;-68
2023/08/06 08:13:01;;;;;;;1.23;1.13;;;15.70;99.90;;;;;;4994896;28;20483;-68
2023/08/06 08:15:29;;;;;;;1.43;1.10;;;15.60;99.90;;;;;;5005092;28;20512;-68
2023/08/06 08:17:56;;;;;;;1.30;1.20;;;15.60;99.90;;;;;;5012771;28;20450;-69
2023/08/06 08:20:23;;;;;;;1.33;1.23;;;15.70;99.90;;;;;;4997267;28;20459;-67
2023/08/06 08:22:50;;;;;;;2.53;1.13;;;15.70;99.90;;;;;;4996477;28;20421;-67
2023/08/06 08:25:17;;;;;;;1.40;1.00;;;15.80;99.90;;;;;;4988549;28;20513;-67
2023/08/06 08:27:45;;;;;;;1.10;0.90;;;16.00;99.90;;;;;;4988698;28;20433;-67
2023/08/06 08:30:12;;;;;;;1.03;0.93;;;16.10;99.90;;;;;;4983850;28;20471;-67
2023/08/06 08:32:38;;;;;;;1.23;1.13;;;16.20;99.90;;;;;;4986721;28;20906;-67
2023/08/06 08:35:05;;;;;;;1.57;1.07;;;16.20;99.90;;;;;;4986070;28;20434;-67
2023/08/06 08:37:32;;;;;;;1.20;1.10;;;16.30;99.90;;;;;;4990830;28;21115;-67
2023/08/06 08:40:00;;;;;;;1.10;1.00;;;16.20;99.90;;;;;;5012061;28;20462;-67
2023/08/06 08:42:27;;;;;;;1.20;1.00;;;16.30;99.90;;;;;;5012461;28;20450;-67
2023/08/06 08:44:56;;;;;;;1.00;0.90;;;16.40;99.90;;;;;;5007471;28;20796;-67
2023/08/06 08:47:24;;;;;;;1.83;1.03;;;16.50;99.90;;;;;;5009621;28;20477;-66
2023/08/06 08:49:54;;;;;;;1.30;1.20;;;16.70;99.90;;;;;;4997323;28;20508;-67
2023/08/06 08:52:21;;;;;;;1.10;1.00;;;17.00;99.90;;;;;;5012345;28;20782;-67
2023/08/06 08:54:51;;;;;;;1.97;1.00;;;17.20;99.90;;;;;;5012141;28;20428;-68
2023/08/06 08:57:18;;;;;;;1.40;1.00;;;17.40;99.90;;;;;;5011881;28;20973;-67
2023/08/06 08:59:45;;;;;;;1.20;1.00;;;17.60;99.90;;;;;;5006685;28;21090;-67
2023/08/06 09:02:15;;;;;;;1.23;1.10;;;18.00;99.90;;;;;;5003980;28;20440;-68
2023/08/06 09:04:43;;;;;;;1.43;1.33;;;18.10;99.90;;;;;;4999650;28;20462;-68
2023/08/06 09:07:14;;;;;;;1.80;1.20;;;18.20;99.90;;;;;;5009697;28;20454;-68
2023/08/06 09:09:41;;;;;;;1.10;1.00;;;18.70;99.90;;;;;;5007775;28;20462;-68
2023/08/06 09:12:13;;;;;;;1.10;1.00;;;19.20;99.90;;;;;;5009061;28;20528;-68
2023/08/06 09:14:40;;;;;;;4.10;1.03;;;19.50;99.90;;;;;;5011777;28;20455;-68
2023/08/06 09:17:07;;;;;;;1.30;1.00;;;19.80;99.90;;;;;;5011701;28;20449;-68
2023/08/06 09:19:35;;;;;;;1.43;1.00;;;19.70;99.90;;;;;;4991002;28;20478;-68
2023/08/06 09:22:02;;;;;;;1.13;1.03;;;19.70;99.90;;;;;;5000664;28;20446;-68
2023/08/06 09:24:29;;;;;;;1.27;1.17;;;19.60;99.90;;;;;;4996934;28;20882;-68
2023/08/06 09:26:56;;;;;;;1.00;0.90;;;19.60;99.90;;;;;;5002828;28;20454;-68
2023/08/06 09:29:23;;;;;;;1.10;1.00;;;19.70;99.90;;;;;;5004375;28;20467;-68
2023/08/06 09:31:52;;;;;;;1.23;1.10;;;19.80;99.90;;;;;;4996331;28;20497;-68
2023/08/06 09:34:23;;;;;;;3.03;1.10;;;20.10;99.90;;;;;;5006625;28;20447;-68
2023/08/06 09:36:53;;;;;;;1.10;1.00;;;20.30;99.90;;;;;;5002637;28;20481;-69
2023/08/06 09:39:21;;;;;;;2.60;1.10;;;20.40;99.90;;;;;;4996251;28;20530;-68
2023/08/06 09:41:48;;;;;;;1.00;0.83;;;20.70;99.90;;;;;;5002858;28;20517;-69
2023/08/06 09:44:18;;;;;;;1.03;0.80;;;20.50;99.90;;;;;;5000775;28;20557;-67
2023/08/06 09:46:49;;;;;;;1.47;0.90;;;20.40;99.90;;;;;;4999381;28;20988;-68
2023/08/06 09:49:16;;;;;;;0.97;0.80;;;20.30;99.90;;;;;;5002436;28;20459;-68
2023/08/06 09:51:44;;;;;;;1.20;1.10;;;20.10;99.90;;;;;;4999996;28;21223;-69
2023/08/06 09:54:13;;;;;;;1.50;1.00;;;20.10;99.90;;;;;;4999696;28;20562;-67
2023/08/06 09:56:41;;;;;;;1.30;1.10;;;20.10;99.90;;;;;;4997901;28;20455;-69
2023/08/06 09:59:07;;;;;;;1.63;1.10;;;19.60;99.90;;;;;;4999644;28;20530;-68
2023/08/06 10:01:36;;;;;;;1.30;1.00;;;19.10;99.90;;;;;;4999197;28;20490;-69
2023/08/06 10:04:04;;;;;;;1.20;1.10;;;18.80;99.90;;;;;;4995695;28;20450;-68
2023/08/06 10:06:34;;;;;;;1.30;1.20;;;18.80;99.90;;;;;;4996437;28;20975;-69
2023/08/06 10:09:01;;;;;;;1.37;1.20;;;18.90;99.90;;;;;;4992689;28;20549;-70
2023/08/06 10:11:30;;;;;;;1.57;1.27;;;19.20;99.90;;;;;;5000958;28;20902;-70
2023/08/06 10:14:03;;;;;;;1.23;0.97;;;20.00;99.90;;;;;;5000900;28;20887;-70
2023/08/06 10:16:30;;;;;;;1.00;0.80;;;20.60;99.90;;;;;;4997103;28;20446;-70
2023/08/06 10:18:58;;;;;;;1.60;1.10;;;21.10;99.90;;;;;;4996325;28;20987;-70
2023/08/06 10:21:27;;;;;;;1.10;1.00;;;21.80;99.90;;;;;;4999988;28;20455;-71
2023/08/06 10:23:55;;;;;;;2.80;1.30;;;21.80;99.90;;;;;;4998887;28;20467;-70
2023/08/06 10:26:25;;;;;;;1.30;0.90;;;21.80;99.90;;;;;;4999521;28;20826;-70
2023/08/06 10:28:53;;;;;;;1.00;0.90;;;21.60;99.90;;;;;;4998464;28;20734;-70
2023/08/06 10:31:20;;;;;;;1.40;1.10;;;21.70;99.90;;;;;;4997122;28;20494;-70
2023/08/06 10:33:48;;;;;;;1.33;1.00;;;21.90;99.90;;;;;;5000555;28;20455;-71
2023/08/06 10:36:15;;;;;;;1.03;0.93;;;22.30;99.90;;;;;;5000957;28;20569;-70
2023/08/06 10:38:46;;;;;;;1.47;1.13;;;22.70;99.90;;;;;;5002330;28;20474;-70
2023/08/06 10:41:17;;;;;;;1.00;0.90;;;23.20;99.90;;;;;;5010868;28;20446;-71
2023/08/06 10:43:44;;;;;;;1.80;1.00;;;23.50;99.90;;;;;;4999987;28;20927;-69
2023/08/06 10:46:23;;;;;;;2.20;0.80;;;23.60;99.90;;;;;;5002073;28;20446;-69
2023/08/06 10:48:50;;;;;;;1.43;0.80;;;23.80;99.90;;;;;;5000949;28;20485;-69
2023/08/06 10:51:16;;;;;;;1.00;0.70;;;24.30;99.90;;;;;;4992352;28;20513;-70
2023/08/06 10:53:45;;;;;;;1.10;0.80;;;24.60;99.90;;;;;;4998061;28;20494;-70
2023/08/06 10:56:14;;;;;;;1.00;0.83;;;25.00;99.90;;;;;;5001984;28;20451;-70
2023/08/06 10:58:41;;;;;;;1.00;0.77;;;24.80;99.90;;;;;;4997350;28;21069;-70
2023/08/06 11:01:08;;;;;;;1.67;0.80;;;24.60;99.90;;;;;;5002806;28;20528;-70
2023/08/06 11:03:37;;;;;;;1.10;0.90;;;24.30;99.90;;;;;;5000501;28;20451;-69
2023/08/06 11:06:05;;;;;;;1.57;0.97;;;23.60;99.90;;;;;;5004794;28;20528;-70
2023/08/06 11:08:36;;;;;;;2.20;1.07;;;23.10;99.90;;;;;;5005291;28;21108;-71
2023/08/06 11:11:10;;;;;;;1.40;0.90;;;23.00;99.90;;;;;;5010151;28;21020;-69
2023/08/06 11:13:37;;;;;;;1.43;0.80;;;22.90;99.90;;;;;;4991922;28;20550;-70
2023/08/06 11:16:04;;;;;;;1.23;1.13;;;22.70;99.90;;;;;;5009773;28;20513;-70
2023/08/06 11:18:31;;;;;;;5.33;0.93;;;22.20;99.90;;;;;;5001596;28;20478;-69
2023/08/06 11:21:01;;;;;;;1.40;1.30;;;21.70;99.90;;;;;;4998583;28;20802;-70
2023/08/06 11:23:28;;;;;;;4.47;1.07;;;21.30;99.90;;;;;;4999975;28;20830;-70
2023/08/06 11:25:55;;;;;;;1.10;0.97;;;21.00;99.90;;;;;;5008782;28;20529;-69
2023/08/06 11:28:22;;;;;;;6.03;1.70;;;20.80;99.90;;;;;;5003211;28;21233;-69
2023/08/06 11:30:49;;;;;;;2.03;1.10;;;20.60;99.90;;;;;;5003971;28;20581;-70
2023/08/06 11:33:15;;;;;;;1.57;1.30;;;20.60;99.90;;;;;;5009565;28;20945;-71
2023/08/06 11:35:42;;;;;;;2.33;1.00;;;20.60;99.90;;;;;;5013907;28;20488;-70
2023/08/06 11:38:10;;;;;;;2.70;1.37;;;20.70;99.90;;;;;;5013513;28;20466;-69
2023/08/06 11:40:37;;;;;;;2.20;1.17;;;20.80;99.90;;;;;;4994116;28;20513;-71
2023/08/06 11:43:03;;;;;;;1.63;1.23;;;21.00;99.90;;;;;;4984660;28;21020;-69
2023/08/06 11:45:30;;;;;;;1.43;1.03;;;21.10;99.90;;;;;;4999614;28;20502;-70
2023/08/06 11:47:58;;;;;;;1.40;1.00;;;21.10;99.90;;;;;;5009945;28;20450;-70
2023/08/06 11:50:25;;;;;;;1.53;1.10;;;21.10;99.90;;;;;;5009015;28;20446;-70
2023/08/06 11:52:55;;;;;;;2.90;1.00;;;21.10;99.90;;;;;;5004576;28;20439;-70
2023/08/06 11:55:24;;;;;;;2.40;1.10;;;21.10;99.90;;;;;;5005896;28;20529;-69
2023/08/06 11:57:52;;;;;;;1.23;1.13;;;21.10;99.90;;;;;;5004654;28;20452;-69
2023/08/06 12:00:21;;;;;;;1.30;1.10;;;21.20;99.90;;;;;;5008132;28;20504;-68
2023/08/06 12:02:52;;;;;;;2.70;0.80;;;21.10;99.90;;;;;;5012585;28;20436;-69
2023/08/06 12:05:20;;;;;;;1.00;0.80;;;21.20;99.90;;;;;;5013286;28;20207;-72
2023/08/06 12:07:49;;;;;;;1.00;0.70;;;20.90;99.90;;;;;;5005173;28;20469;-69
2023/08/06 12:10:16;;;;;;;1.00;0.90;;;20.20;99.90;;;;;;5010421;28;20469;-70
2023/08/06 12:12:44;;;;;;;2.40;1.00;;;19.40;99.90;;;;;;5000737;28;20903;-68
2023/08/06 12:15:11;;;;;;;2.30;1.20;;;18.90;99.90;;;;;;5001912;28;20443;-69
2023/08/06 12:17:38;;;;;;;3.07;1.20;;;18.50;99.90;;;;;;5005481;28;20442;-68
2023/08/06 12:20:06;;;;;;;34.50;6.10;;;18.20;99.90;;;;;;5002997;28;20482;-69
2023/08/06 12:22:35;;;;;;;10.33;3.40;;;18.00;99.90;;;;;;5002000;28;20439;-70
2023/08/06 12:25:03;;;;;;;18.13;9.67;;;17.70;99.90;;;;;;5007022;28;20450;-68
2023/08/06 12:27:29;;;;;;;1.50;1.40;;;17.50;99.90;;;;;;5003173;28;21012;-69
2023/08/06 12:29:57;;;;;;;30.60;15.93;;;17.30;99.90;;;;;;5010288;28;20504;-71
2023/08/06 12:32:24;;;;;;;45.90;35.22;;;17.10;99.90;;;;;;5012538;28;20517;-70
2023/08/06 12:34:51;;;;;;;173.27;133.83;;;16.90;99.90;;;;;;5010805;28;20236;-67
2023/08/06 12:37:17;;;;;;;337.77;165.70;;;16.70;99.90;;;;;;4998142;28;20866;-69
2023/08/06 12:39:44;;;;;;;10.40;5.00;;;16.60;99.90;;;;;;5012203;28;20474;-69
2023/08/06 12:42:10;;;;;;;3.80;3.30;;;16.50;99.90;;;;;;4998736;28;20450;-68